Time;durP1;ratioP1;P1;durP2;ratioP2;P2;SDS_P1;SDS_P2;PMS_P1;PMS_P2;Temp;Humidity;BMP_temperature;BMP_pressure;BME280_temperature;BME280_humidity;BME280_pressure;Samples;Min_cycle;Max_cycle;Signal;HPM_P1;HPM_P2
2024/03/12 00:05:25;;;;;;;25.1;15.6;;;;;;;7.58;91.42;97860;;;;
2024/03/12 00:15:25;;;;;;;24.9;14.9;;;;;;;7.62;91.47;97851.666666667;;;;
2024/03/12 00:26:25;;;;;;;24.9;14.9;;;;;;;7.55;91.45;97848.333333333;;;;
2024/03/12 00:36:25;;;;;;;24.9;14.9;;;;;;;7.68;91.26;97851.666666667;;;;
2024/03/12 00:47:25;;;;;;;29.4;15.9;;;;;;;7.71;91.31;97841.666666667;;;;
2024/03/12 00:57:27;;;;;;;29.4;15.9;;;;;;;7.54;91.43;97838.333333333;;;;
2024/03/12 01:07:25;;;;;;;29.4;15.9;;;;;;;7.46;91.6;97836.666666667;;;;
2024/03/12 01:18:25;;;;;;;23;15.7;;;;;;;7.57;91.31;97830;;;;
2024/03/12 01:28:25;;;;;;;23;15.7;;;;;;;7.56;91.3;97823.333333333;;;;
2024/03/12 01:39:26;;;;;;;23;15.7;;;;;;;7.47;91.67;97816.666666667;;;;
2024/03/12 01:50:25;;;;;;;28.4;17.4;;;;;;;7.46;91.83;97813.333333333;;;;
2024/03/12 02:01:25;;;;;;;28.4;17.4;;;;;;;7.32;92.18;97813.333333333;;;;
2024/03/12 02:11:26;;;;;;;28.4;17.4;;;;;;;7.4;92.01;97811.666666667;;;;
2024/03/12 02:21:25;;;;;;;31.5;17.2;;;;;;;7.41;91.97;97815;;;;
2024/03/12 02:32:25;;;;;;;31.5;17.2;;;;;;;7.45;91.62;97815;;;;
2024/03/12 02:42:25;;;;;;;28.8;16.7;;;;;;;7.44;91.66;97815;;;;
2024/03/12 02:52:25;;;;;;;28.8;16.7;;;;;;;7.46;92;97811.666666667;;;;
2024/03/12 03:03:33;;;;;;;28.8;16.7;;;;;;;7.34;92.27;97808.333333333;;;;
2024/03/12 03:14:25;;;;;;;30.3;19.1;;;;;;;7.34;92.08;97806.666666667;;;;
2024/03/12 03:24:25;;;;;;;30.3;19.1;;;;;;;7.43;92.14;97806.666666667;;;;
2024/03/12 03:35:25;;;;;;;30.3;19.1;;;;;;;7.32;92.31;97808.333333333;;;;
2024/03/12 03:45:25;;;;;;;32.3;17.8;;;;;;;7.45;91.92;97813.333333333;;;;
2024/03/12 03:55:25;;;;;;;32.3;17.8;;;;;;;7.47;91.84;97820;;;;
2024/03/12 04:05:25;;;;;;;32.3;17.8;;;;;;;7.43;92.64;97820;;;;
2024/03/12 04:16:25;;;;;;;30.9;17.1;;;;;;;7.48;92.18;97820;;;;
2024/03/12 04:26:25;;;;;;;30.9;17.1;;;;;;;7.48;92.16;97821.666666667;;;;
2024/03/12 04:36:25;;;;;;;30.9;17.1;;;;;;;7.3;92.5;97821.666666667;;;;
2024/03/12 04:47:25;;;;;;;26.6;15.2;;;;;;;7.48;92.21;97828.333333333;;;;
2024/03/12 04:57:25;;;;;;;26.6;15.2;;;;;;;7.44;92.48;97840;;;;
2024/03/12 05:08:25;;;;;;;26.6;15.2;;;;;;;7.46;92.19;97856.666666667;;;;
2024/03/12 05:18:25;;;;;;;23.7;14.7;;;;;;;7.57;91.78;97860;;;;
2024/03/12 05:29:33;;;;;;;23.7;14.7;;;;;;;7.62;92.06;97861.666666667;;;;
2024/03/12 05:40:29;;;;;;;23.7;14.7;;;;;;;7.47;92.14;97873.333333333;;;;
2024/03/12 05:50:25;;;;;;;26.4;16.1;;;;;;;7.51;92.25;97876.666666667;;;;
2024/03/12 06:00:25;;;;;;;26.4;16.1;;;;;;;7.54;92.52;97885;;;;
2024/03/12 06:11:26;;;;;;;26.4;16.1;;;;;;;7.66;92.37;97893.333333333;;;;
2024/03/12 06:21:25;;;;;;;26.3;13.9;;;;;;;7.62;92.22;97901.666666667;;;;
2024/03/12 06:32:31;;;;;;;26.3;13.9;;;;;;;7.73;91.96;97900;;;;
2024/03/12 06:42:29;;;;;;;21;11.7;;;;;;;7.7;92.09;97913.333333333;;;;
2024/03/12 06:53:27;;;;;;;21;11.7;;;;;;;8.02;91.73;97918.333333333;;;;
2024/03/12 07:04:34;;;;;;;21;11.7;;;;;;;7.85;91.47;97925;;;;
2024/03/12 07:14:27;;;;;;;19.9;12.6;;;;;;;8.04;91.29;97936.666666667;;;;
2024/03/12 07:24:25;;;;;;;19.9;12.6;;;;;;;8.05;91.1;97943.333333333;;;;
2024/03/12 07:35:25;;;;;;;19.9;12.6;;;;;;;8.35;90.33;97945;;;;
2024/03/12 07:45:26;;;;;;;19;12.8;;;;;;;8.29;90.6;97955;;;;
2024/03/12 07:56:26;;;;;;;19;12.8;;;;;;;8.21;90.57;97956.666666667;;;;
2024/03/12 08:06:25;;;;;;;19;12.8;;;;;;;8.41;89.78;97956.666666667;;;;
2024/03/12 08:17:26;;;;;;;24.5;14.6;;;;;;;8.55;89.97;97966.666666667;;;;
2024/03/12 08:28:26;;;;;;;24.5;14.6;;;;;;;8.59;90.1;97970;;;;
2024/03/12 08:39:27;;;;;;;24.5;14.6;;;;;;;9;90.47;97975;;;;
2024/03/12 08:49:27;;;;;;;24.8;15.6;;;;;;;8.93;89.54;97976.666666667;;;;
2024/03/12 09:00:28;;;;;;;24.8;15.6;;;;;;;8.99;88.71;97988.333333333;;;;
2024/03/12 09:09:51;;;;;;;24.8;15.6;;;;;;;8.96;89.27;97991.666666667;;;;
2024/03/12 09:19:51;;;;;;;24.6;16.2;;;;;;;9.57;88.13;98003.333333333;;;;
2024/03/12 09:30:51;;;;;;;24.6;16.2;;;;;;;9.51;87.53;98006.666666667;;;;
2024/03/12 09:40:51;;;;;;;24.6;16.2;;;;;;;9.68;86.98;98006.666666667;;;;
2024/03/12 09:50:51;;;;;;;26.5;16.7;;;;;;;10.05;85.98;98006.666666667;;;;
2024/03/12 10:01:51;;;;;;;26.5;16.7;;;;;;;9.98;84.82;98018.333333333;;;;
2024/03/12 10:11:51;;;;;;;33.5;20.3;;;;;;;10.04;84.74;98025;;;;
2024/03/12 10:22:51;;;;;;;33.5;20.3;;;;;;;10.05;84.94;98026.666666667;;;;
2024/03/12 10:33:51;;;;;;;33.5;20.3;;;;;;;10.21;84.34;98026.666666667;;;;
2024/03/12 10:44:51;;;;;;;29.2;17.8;;;;;;;10.02;84.91;98028.333333333;;;;
2024/03/12 10:54:51;;;;;;;29.2;17.8;;;;;;;10.03;85.15;98033.333333333;;;;
2024/03/12 11:05:51;;;;;;;29.2;17.8;;;;;;;9.98;85.25;98035;;;;
2024/03/12 11:15:51;;;;;;;27.6;18.1;;;;;;;10.07;85.21;98036.666666667;;;;
2024/03/12 11:25:51;;;;;;;27.6;18.1;;;;;;;10;85.29;98028.333333333;;;;
2024/03/12 11:36:51;;;;;;;27.6;18.1;;;;;;;9.84;85.68;98035;;;;
2024/03/12 11:46:51;;;;;;;29.2;16.8;;;;;;;10.01;85.78;98035;;;;
2024/03/12 11:57:51;;;;;;;29.2;16.8;;;;;;;10.21;84.88;98036.666666667;;;;
2024/03/12 12:08:51;;;;;;;29.2;16.8;;;;;;;10.3;85.01;98036.666666667;;;;
2024/03/12 12:18:51;;;;;;;31.8;18.4;;;;;;;10.33;84.3;98046.666666667;;;;
2024/03/12 12:29:53;;;;;;;31.8;18.4;;;;;;;10.26;84.4;98045;;;;
2024/03/12 12:40:51;;;;;;;31.8;18.4;;;;;;;9.92;85.65;98053.333333333;;;;
2024/03/12 12:50:51;;;;;;;32.1;17;;;;;;;10.08;85.77;98046.666666667;;;;
2024/03/12 13:00:51;;;;;;;32.1;17;;;;;;;9.86;85.81;98048.333333333;;;;
2024/03/12 13:11:51;;;;;;;24.5;15.7;;;;;;;10.05;85.4;98048.333333333;;;;
2024/03/12 13:21:55;;;;;;;24.5;15.7;;;;;;;9.83;86.11;98058.333333333;;;;
2024/03/12 13:31:51;;;;;;;24.5;15.7;;;;;;;9.74;86.57;98070;;;;
2024/03/12 13:42:51;;;;;;;27.5;16.9;;;;;;;9.76;86.46;98076.666666667;;;;
2024/03/12 13:52:52;;;;;;;27.5;16.9;;;;;;;9.8;86.54;98083.333333333;;;;
2024/03/12 14:03:53;;;;;;;27.5;16.9;;;;;;;9.74;86.82;98083.333333333;;;;
2024/03/12 14:14:51;;;;;;;29.1;18;;;;;;;9.39;88.18;98086.666666667;;;;
2024/03/12 14:25:51;;;;;;;29.1;18;;;;;;;9.25;88.82;98096.666666667;;;;
2024/03/12 14:35:51;;;;;;;29.1;18;;;;;;;9.13;89.68;98095;;;;
2024/03/12 14:46:51;;;;;;;33.8;19.9;;;;;;;9.13;89.84;98096.666666667;;;;
2024/03/12 14:56:51;;;;;;;33.8;19.9;;;;;;;9.03;90.58;98090;;;;
2024/03/12 15:06:52;;;;;;;33.8;19.9;;;;;;;9.13;90.59;98095;;;;
2024/03/12 15:16:51;;;;;;;31.4;21;;;;;;;9.23;90.3;98105;;;;
2024/03/12 15:27:52;;;;;;;31.4;21;;;;;;;9.23;90.48;98106.666666667;;;;
2024/03/12 15:38:51;;;;;;;31.4;21;;;;;;;9.09;91.02;98108.333333333;;;;
2024/03/12 15:48:51;;;;;;;30.6;19.9;;;;;;;9.23;91.03;98125;;;;
2024/03/12 15:59:51;;;;;;;30.6;19.9;;;;;;;9.29;90.75;98131.666666667;;;;
2024/03/12 16:10:51;;;;;;;30.6;19.9;;;;;;;9.29;90.56;98140;;;;
2024/03/12 16:21:51;;;;;;;29.1;18;;;;;;;9.37;90.74;98148.333333333;;;;
2024/03/12 16:32:51;;;;;;;29.1;18;;;;;;;9.31;90.85;98156.666666667;;;;
2024/03/12 16:42:51;;;;;;;31.7;20.9;;;;;;;9.42;90.88;98165;;;;
2024/03/12 16:53:51;;;;;;;31.7;20.9;;;;;;;9.35;90.52;98170;;;;
2024/03/12 17:03:51;;;;;;;31.7;20.9;;;;;;;9.36;90.63;98175;;;;
2024/03/12 17:13:51;;;;;;;28.9;19.2;;;;;;;9.31;90.68;98180;;;;
2024/03/12 17:24:51;;;;;;;28.9;19.2;;;;;;;9.32;90.95;98183.333333333;;;;
2024/03/12 17:34:51;;;;;;;28.9;19.2;;;;;;;9.16;91.09;98188.333333333;;;;
2024/03/12 17:44:53;;;;;;;27.9;18.2;;;;;;;9.03;91.41;98196.666666667;;;;
2024/03/12 17:55:51;;;;;;;27.9;18.2;;;;;;;8.95;91.91;98203.333333333;;;;
2024/03/12 18:05:52;;;;;;;27.9;18.2;;;;;;;8.84;92.4;98208.333333333;;;;
2024/03/12 18:16:51;;;;;;;32.2;21.6;;;;;;;8.88;92.15;98213.333333333;;;;
2024/03/12 18:26:51;;;;;;;32.2;21.6;;;;;;;8.94;92;98220;;;;
2024/03/12 18:37:51;;;;;;;32.2;21.6;;;;;;;8.89;92.18;98228.333333333;;;;
2024/03/12 18:48:52;;;;;;;29.8;17.8;;;;;;;8.95;92.2;98233.333333333;;;;
2024/03/12 18:59:51;;;;;;;29.8;17.8;;;;;;;8.81;92.12;98238.333333333;;;;
2024/03/12 19:10:51;;;;;;;29.8;17.8;;;;;;;8.84;92.11;98241.666666667;;;;
2024/03/12 19:20:52;;;;;;;29.8;15;;;;;;;8.7;92.11;98243.333333333;;;;
2024/03/12 19:31:51;;;;;;;29.8;15;;;;;;;8.78;91.77;98250;;;;
2024/03/12 19:41:51;;;;;;;14.7;9.4;;;;;;;8.81;91.42;98248.333333333;;;;
2024/03/12 19:52:52;;;;;;;14.7;9.4;;;;;;;8.8;91.35;98250;;;;
2024/03/12 20:03:51;;;;;;;14.7;9.4;;;;;;;8.68;91.88;98251.666666667;;;;
2024/03/12 20:13:51;;;;;;;21.4;13.7;;;;;;;8.49;92.31;98256.666666667;;;;
2024/03/12 20:23:51;;;;;;;21.4;13.7;;;;;;;8.47;92.47;98266.666666667;;;;
2024/03/12 20:33:52;;;;;;;21.4;13.7;;;;;;;8.34;92.84;98271.666666667;;;;
2024/03/12 20:44:51;;;;;;;25.2;16.9;;;;;;;8.26;93.04;98280;;;;
2024/03/12 20:55:51;;;;;;;25.2;16.9;;;;;;;8.31;92.9;98285;;;;
2024/03/12 21:05:51;;;;;;;25.2;16.9;;;;;;;8.29;92.75;98285;;;;
2024/03/12 21:16:52;;;;;;;21.4;12.9;;;;;;;8.21;92.83;98281.666666667;;;;
2024/03/12 21:26:51;;;;;;;21.4;12.9;;;;;;;8.25;92.81;98283.333333333;;;;
2024/03/12 21:36:51;;;;;;;21.4;12.9;;;;;;;8.25;92.79;98285;;;;
2024/03/12 21:47:52;;;;;;;26.9;14.1;;;;;;;8.19;92.78;98293.333333333;;;;
2024/03/12 21:58:52;;;;;;;26.9;14.1;;;;;;;8.17;92.71;98300;;;;
2024/03/12 22:09:51;;;;;;;26.9;14.1;;;;;;;8.13;92.55;98308.333333333;;;;
2024/03/12 22:19:51;;;;;;;17.9;10.2;;;;;;;8.1;92.54;98315;;;;
2024/03/12 22:30:52;;;;;;;17.9;10.2;;;;;;;8.03;92.63;98320;;;;
2024/03/12 22:40:52;;;;;;;17.9;10.2;;;;;;;7.95;92.56;98318.333333333;;;;
2024/03/12 22:51:52;;;;;;;15.8;9.3;;;;;;;8.06;92.3;98325;;;;
2024/03/12 23:02:51;;;;;;;15.8;9.3;;;;;;;7.92;92.33;98325;;;;
2024/03/12 23:12:56;;;;;;;15.5;8.7;;;;;;;7.92;92.48;98331.666666667;;;;
2024/03/12 23:22:52;;;;;;;15.5;8.7;;;;;;;7.89;92.37;98338.333333333;;;;
2024/03/12 23:33:52;;;;;;;15.5;8.7;;;;;;;7.81;92.37;98343.333333333;;;;
2024/03/12 23:43:52;;;;;;;16.8;9.2;;;;;;;7.77;92.33;98345;;;;
2024/03/12 23:54:51;;;;;;;16.8;9.2;;;;;;;7.73;92.38;98350;;;;
